createdAt,value
2023-02-19T00:01:42.369Z,99257.41
2023-02-19T00:04:15.135Z,99260.81
2023-02-19T00:06:42.763Z,99261.66
2023-02-19T00:09:11.590Z,99264.22
2023-02-19T00:11:39.235Z,99255.69
2023-02-19T00:14:06.700Z,99269.38
2023-02-19T00:16:36.285Z,99257.31
2023-02-19T00:19:06.264Z,99270.19
2023-02-19T00:21:33.607Z,99269.38
2023-02-19T00:24:05.584Z,99278.78
2023-02-19T00:26:33.310Z,99266.81
2023-02-19T00:29:01.029Z,99265.91
2023-02-19T00:31:32.494Z,99263.34
2023-02-19T00:34:05.328Z,99265.03
2023-02-19T00:36:35.106Z,99267.63
2023-02-19T00:39:02.466Z,99271.91
2023-02-19T00:41:30.620Z,99277.03
2023-02-19T00:43:59.494Z,99276.16
2023-02-19T00:46:29.868Z,99278.72
2023-02-19T00:48:57.487Z,99276.16
2023-02-19T00:51:26.715Z,99281.28
2023-02-19T00:53:53.805Z,99276.97
2023-02-19T00:56:21.006Z,99282.13
2023-02-19T00:58:48.168Z,99287.28
2023-02-19T01:01:15.501Z,99276.97
2023-02-19T01:03:42.564Z,99283.81
2023-02-19T01:06:11.186Z,99266.66
2023-02-19T01:08:38.382Z,99271.78
2023-02-19T01:11:07.297Z,99261.50
2023-02-19T01:13:34.520Z,99256.34
2023-02-19T01:16:11.764Z,99253.78
2023-02-19T01:18:39.203Z,99244.31
2023-02-19T01:21:07.898Z,99251.16
2023-02-19T01:23:36.011Z,99264.00
2023-02-19T01:26:07.505Z,99261.41
2023-02-19T01:28:35.318Z,99263.13
2023-02-19T01:31:04.175Z,99268.22
2023-02-19T01:33:31.380Z,99264.75
2023-02-19T01:35:58.402Z,99271.63
2023-02-19T01:38:25.724Z,99265.59
2023-02-19T01:41:00.539Z,99278.47
2023-02-19T01:43:28.034Z,99269.03
2023-02-19T01:45:55.424Z,99269.91
2023-02-19T01:48:35.549Z,99278.53
2023-02-19T01:51:09.637Z,99269.94
2023-02-19T01:53:41.023Z,99269.09
2023-02-19T01:56:08.563Z,99264.81
2023-02-19T01:58:37.289Z,99262.22
2023-02-19T02:01:07.112Z,99266.53
2023-02-19T02:03:36.122Z,99265.69
2023-02-19T02:06:08.280Z,99266.56
2023-02-19T02:08:55.216Z,99255.41
2023-02-19T02:11:23.104Z,99248.53
2023-02-19T02:13:50.649Z,99253.69
2023-02-19T02:16:24.618Z,99253.69
2023-02-19T02:19:02.150Z,99257.13
2023-02-19T02:22:12.612Z,99268.31
2023-02-19T02:25:05.647Z,99277.75
2023-02-19T02:28:12.496Z,99270.84
2023-02-19T02:30:43.897Z,99258.03
2023-02-19T02:33:34.908Z,99258.84
2023-02-19T02:36:09.292Z,99260.56
2023-02-19T02:38:41.175Z,99249.41
2023-02-19T02:41:09.121Z,99246.84
2023-02-19T02:43:36.809Z,99243.44
2023-02-19T02:46:04.117Z,99238.31
2023-02-19T02:48:57.064Z,99240.00
2023-02-19T02:51:30.819Z,99241.72
2023-02-19T02:54:38.886Z,99242.59
2023-02-19T02:57:14.962Z,99245.19
2023-02-19T02:59:49.217Z,99236.59
2023-02-19T03:02:24.008Z,99249.41
2023-02-19T03:05:28.610Z,99255.41
2023-02-19T03:08:16.033Z,99260.56
2023-02-19T03:10:48.993Z,99258.81
2023-02-19T03:13:39.796Z,99262.22
2023-02-19T03:16:39.728Z,99256.19
2023-02-19T03:19:28.911Z,99254.41
2023-02-19T03:22:01.081Z,99251.84
2023-02-19T03:24:52.203Z,99242.38
2023-02-19T03:27:20.744Z,99243.19
2023-02-19T03:29:53.686Z,99239.72
2023-02-19T03:32:25.422Z,99245.72
2023-02-19T03:35:06.188Z,99250.00
2023-02-19T03:37:38.529Z,99265.38
2023-02-19T03:40:06.203Z,99259.38
2023-02-19T03:43:00.426Z,99257.66
2023-02-19T03:45:49.562Z,99259.38
2023-02-19T03:48:29.732Z,99260.22
2023-02-19T03:51:06.205Z,99263.59
2023-02-19T03:53:42.206Z,99264.47
2023-02-19T03:56:19.022Z,99261.88
2023-02-19T03:59:09.852Z,99267.03
2023-02-19T04:01:43.457Z,99265.34
2023-02-19T04:04:32.911Z,99267.06
2023-02-19T04:07:00.507Z,99268.75
2023-02-19T04:09:34.445Z,99278.22
2023-02-19T04:12:07.316Z,99255.13
2023-02-19T04:15:00.835Z,99261.13
2023-02-19T04:17:34.568Z,99266.22
2023-02-19T04:20:04.529Z,99256.75
2023-02-19T04:22:31.556Z,99259.31
2023-02-19T04:24:58.587Z,99248.97
2023-02-19T04:27:25.611Z,99240.34
2023-02-19T04:29:52.433Z,99245.50
2023-02-19T04:32:19.396Z,99245.44
2023-02-19T04:34:46.183Z,99243.72
2023-02-19T04:37:13.126Z,99251.44
2023-02-19T04:39:39.984Z,99248.00
2023-02-19T04:42:06.836Z,99250.56
2023-02-19T04:44:34.534Z,99247.16
2023-02-19T04:47:01.561Z,99249.72
2023-02-19T04:49:28.523Z,99246.28
2023-02-19T04:51:55.442Z,99244.59
2023-02-19T04:54:22.261Z,99236.88
2023-02-19T04:56:50.796Z,99242.88
2023-02-19T04:59:17.707Z,99242.03
2023-02-19T05:01:44.636Z,99248.06
2023-02-19T05:04:11.731Z,99246.34
2023-02-19T05:06:38.611Z,99254.06
2023-02-19T05:09:05.450Z,99252.34
2023-02-19T05:11:32.331Z,99254.97
2023-02-19T05:13:59.140Z,99253.25
2023-02-19T05:16:26.245Z,99259.28
2023-02-19T05:18:53.144Z,99257.56
2023-02-19T05:21:20.160Z,99259.28
2023-02-19T05:23:46.929Z,99256.69
2023-02-19T05:26:19.868Z,99252.41
2023-02-19T05:28:49.439Z,99260.97
2023-02-19T05:31:17.112Z,99262.75
2023-02-19T05:33:45.780Z,99272.22
2023-02-19T05:36:13.988Z,99266.22
2023-02-19T05:38:41.762Z,99264.56
2023-02-19T05:41:14.661Z,99267.13
2023-02-19T05:43:42.891Z,99261.13
2023-02-19T05:46:11.196Z,99274.84
2023-02-19T05:48:38.268Z,99265.47
2023-02-19T05:51:07.802Z,99278.34
2023-02-19T05:53:35.100Z,99265.50
2023-02-19T05:56:02.093Z,99268.09
2023-02-19T05:58:29.138Z,99269.81
2023-02-19T06:00:56.200Z,99268.94
2023-02-19T06:03:23.555Z,99266.38
2023-02-19T06:05:50.531Z,99269.00
2023-02-19T06:08:17.322Z,99262.94
2023-02-19T06:10:44.257Z,99268.94
2023-02-19T06:13:11.447Z,99274.13
2023-02-19T06:15:38.768Z,99280.09
2023-02-19T06:18:05.601Z,99278.38
2023-02-19T06:20:33.141Z,99280.09
2023-02-19T06:23:00.042Z,99280.09
2023-02-19T06:25:26.878Z,99287.00
2023-02-19T06:27:53.745Z,99280.16
2023-02-19T06:30:20.734Z,99285.28
2023-02-19T06:32:47.616Z,99289.56
2023-02-19T06:35:14.486Z,99294.75
2023-02-19T06:37:41.322Z,99300.81
2023-02-19T06:40:09.326Z,99315.38
2023-02-19T06:42:36.252Z,99317.97
2023-02-19T06:45:03.014Z,99319.69
2023-02-19T06:47:33.315Z,99324.84
2023-02-19T06:50:00.617Z,99329.16
2023-02-19T06:52:28.142Z,99328.31
2023-02-19T06:54:55.016Z,99327.47
2023-02-19T06:57:21.894Z,99337.75
2023-02-19T06:59:48.870Z,99341.16
2023-02-19T07:02:40.046Z,99336.88
2023-02-19T07:05:23.624Z,99354.03
2023-02-19T07:07:50.492Z,99348.88
2023-02-19T07:10:17.364Z,99356.63
2023-02-19T07:12:44.230Z,99359.22
2023-02-19T07:15:11.181Z,99359.19
2023-02-19T07:17:38.100Z,99356.59
2023-02-19T07:20:05.162Z,99353.13
2023-02-19T07:22:31.952Z,99361.72
2023-02-19T07:24:58.825Z,99367.72
2023-02-19T07:27:25.620Z,99365.13
2023-02-19T07:29:53.021Z,99368.56
2023-02-19T07:32:19.883Z,99376.31
2023-02-19T07:34:46.712Z,99378.00
2023-02-19T07:37:13.608Z,99376.31
2023-02-19T07:39:40.417Z,99387.47
2023-02-19T07:42:07.446Z,99378.91
2023-02-19T07:44:34.365Z,99384.97
2023-02-19T07:47:01.165Z,99388.44
2023-02-19T07:49:28.859Z,99391.94
2023-02-19T07:51:55.733Z,99386.84
2023-02-19T07:54:22.644Z,99393.75
2023-02-19T07:56:49.494Z,99398.06
2023-02-19T07:59:19.468Z,99399.75
2023-02-19T08:02:06.228Z,99404.09
2023-02-19T08:04:33.377Z,99394.69
2023-02-19T08:07:00.172Z,99405.84
2023-02-19T08:09:27.069Z,99404.16
2023-02-19T08:12:13.851Z,99413.63
2023-02-19T08:14:40.715Z,99417.91
2023-02-19T08:17:07.617Z,99425.69
2023-02-19T08:19:34.610Z,99434.28
2023-02-19T08:22:01.493Z,99430.06
2023-02-19T08:24:28.444Z,99439.56
2023-02-19T08:26:55.293Z,99444.75
2023-02-19T08:29:22.230Z,99436.19
2023-02-19T08:31:49.230Z,99443.13
2023-02-19T08:34:16.163Z,99439.69
2023-02-19T08:36:44.188Z,99448.38
2023-02-19T08:39:11.002Z,99457.06
2023-02-19T08:41:37.850Z,99455.34
2023-02-19T08:44:04.804Z,99463.97
2023-02-19T08:46:34.259Z,99467.41
2023-02-19T08:49:01.397Z,99469.09
2023-02-19T08:51:28.258Z,99469.03
2023-02-19T08:53:55.038Z,99484.44
2023-02-19T08:56:21.995Z,99480.13
2023-02-19T08:58:48.821Z,99479.31
2023-02-19T09:01:18.687Z,99479.31
2023-02-19T09:03:46.142Z,99482.88
2023-02-19T09:06:18.528Z,99486.41
2023-02-19T09:08:45.601Z,99494.19
2023-02-19T09:11:13.003Z,99499.28
2023-02-19T09:13:40.169Z,99488.97
2023-02-19T09:16:07.789Z,99494.94
2023-02-19T09:18:34.924Z,99491.47
2023-02-19T09:21:04.605Z,99497.50
2023-02-19T09:23:36.048Z,99488.94
2023-02-19T09:26:06.935Z,99495.06
2023-02-19T09:28:33.999Z,99489.94
2023-02-19T09:31:05.722Z,99486.47
2023-02-19T09:33:32.612Z,99499.38
2023-02-19T09:36:00.821Z,99502.03
2023-02-19T09:38:29.455Z,99501.22
2023-02-19T09:40:57.853Z,99496.09
2023-02-19T09:43:27.004Z,99503.03
2023-02-19T09:46:04.028Z,99501.31
2023-02-19T09:48:31.202Z,99509.06
2023-02-19T09:50:59.733Z,99510.84
2023-02-19T09:53:30.149Z,99504.84
2023-02-19T09:55:57.126Z,99509.16
2023-02-19T09:58:30.097Z,99509.09
2023-02-19T10:00:58.443Z,99518.56
2023-02-19T10:03:33.741Z,99523.81
2023-02-19T10:06:11.484Z,99523.84
2023-02-19T10:08:40.760Z,99522.16
2023-02-19T10:11:07.823Z,99525.63
2023-02-19T10:13:42.653Z,99523.94
2023-02-19T10:16:16.245Z,99521.34
2023-02-19T10:18:44.849Z,99523.91
2023-02-19T10:21:19.601Z,99523.84
2023-02-19T10:23:47.559Z,99531.59
2023-02-19T10:26:14.742Z,99530.75
2023-02-19T10:28:41.758Z,99538.47
2023-02-19T10:31:20.404Z,99535.91
2023-02-19T10:33:50.466Z,99543.69
2023-02-19T10:36:28.286Z,99555.78
2023-02-19T10:38:57.144Z,99542.84
2023-02-19T10:41:25.542Z,99553.22
2023-02-19T10:44:16.142Z,99554.94
2023-02-19T10:46:48.005Z,99553.22
2023-02-19T10:49:37.528Z,99563.53
2023-02-19T10:52:34.437Z,99573.03
2023-02-19T10:55:25.947Z,99571.25
2023-02-19T10:57:52.877Z,99572.13
2023-02-19T11:00:27.502Z,99572.09
2023-02-19T11:03:24.115Z,99581.63
2023-02-19T11:05:56.465Z,99571.31
2023-02-19T11:08:23.828Z,99577.38
2023-02-19T11:10:51.008Z,99578.22
2023-02-19T11:13:26.620Z,99579.91
2023-02-19T11:15:54.968Z,99586.81
2023-02-19T11:18:24.768Z,99574.75
2023-02-19T11:21:03.464Z,99591.13
2023-02-19T11:23:33.024Z,99592.84
2023-02-19T11:26:03.050Z,99596.25
2023-02-19T11:28:37.865Z,99601.41
2023-02-19T11:31:25.877Z,99597.97
2023-02-19T11:34:01.109Z,99607.41
2023-02-19T11:36:33.640Z,99609.09
2023-02-19T11:39:29.045Z,99612.53
2023-02-19T11:42:35.823Z,99610.78
2023-02-19T11:45:28.866Z,99621.16
2023-02-19T11:48:35.615Z,99625.56
2023-02-19T11:51:21.479Z,99621.28
2023-02-19T11:54:00.313Z,99615.25
2023-02-19T11:56:34.392Z,99615.25
2023-02-19T11:59:08.305Z,99621.25
2023-02-19T12:02:08.847Z,99634.16
2023-02-19T12:04:59.762Z,99643.53
2023-02-19T12:08:03.943Z,99635.72
2023-02-19T12:11:01.223Z,99628.78
2023-02-19T12:13:56.183Z,99647.72
2023-02-19T12:16:31.871Z,99653.69
2023-02-19T12:19:20.484Z,99659.66
2023-02-19T12:22:15.254Z,99651.03
2023-02-19T12:25:04.520Z,99661.31
2023-02-19T12:28:11.120Z,99668.13
2023-02-19T12:30:56.213Z,99671.47
2023-02-19T12:34:03.061Z,99673.09
2023-02-19T12:37:03.332Z,99678.16
2023-02-19T12:40:01.798Z,99687.63
2023-02-19T12:42:58.091Z,99687.66
2023-02-19T12:45:32.270Z,99690.22
2023-02-19T12:48:03.366Z,99692.81
2023-02-19T12:50:31.440Z,99687.75
2023-02-19T12:53:07.328Z,99692.19
2023-02-19T12:55:37.812Z,99695.72
2023-02-19T12:58:06.185Z,99697.47
2023-02-19T13:00:50.624Z,99695.84
2023-02-19T13:03:39.672Z,99695.00
2023-02-19T13:06:35.194Z,99707.06
2023-02-19T13:09:16.148Z,99704.47
2023-02-19T13:11:48.408Z,99696.72
2023-02-19T13:14:28.302Z,99709.66
2023-02-19T13:17:01.643Z,99712.19
2023-02-19T13:19:31.074Z,99700.09
2023-02-19T13:22:25.450Z,99710.38
2023-02-19T13:24:52.529Z,99721.47
2023-02-19T13:27:50.168Z,99718.00
2023-02-19T13:30:48.319Z,99720.69
2023-02-19T13:33:42.247Z,99727.53
2023-02-19T13:36:17.067Z,99729.25
2023-02-19T13:38:46.872Z,99724.94
2023-02-19T13:41:40.535Z,99733.56
2023-02-19T13:44:16.523Z,99727.53
2023-02-19T13:46:44.795Z,99735.28
2023-02-19T13:49:47.169Z,99749.00
2023-02-19T13:52:33.832Z,99762.84
2023-02-19T13:55:42.457Z,99752.38
2023-02-19T13:58:36.098Z,99754.88
2023-02-19T14:01:11.954Z,99749.59
2023-02-19T14:03:46.721Z,99755.56
2023-02-19T14:06:13.712Z,99743.47
2023-02-19T14:08:58.046Z,99768.38
2023-02-19T14:12:04.871Z,99786.44
2023-02-19T14:14:37.378Z,99788.13
2023-02-19T14:17:26.147Z,99789.78
2023-02-19T14:19:59.232Z,99781.06
2023-02-19T14:22:57.101Z,99793.91
2023-02-19T14:25:44.888Z,99786.13
2023-02-19T14:28:30.310Z,99782.72
2023-02-19T14:31:08.689Z,99781.84
2023-02-19T14:33:40.194Z,99771.47
2023-02-19T14:36:32.878Z,99786.00
2023-02-19T14:39:06.934Z,99785.00
2023-02-19T14:41:38.760Z,99780.66
2023-02-19T14:44:06.240Z,99792.78
2023-02-19T14:46:37.771Z,99793.53
2023-02-19T14:49:11.884Z,99799.47
2023-02-19T14:51:40.921Z,99807.97
2023-02-19T14:54:17.060Z,99808.78
2023-02-19T14:56:51.254Z,99808.72
2023-02-19T14:59:24.083Z,99815.53
2023-02-19T15:01:55.784Z,99808.50
2023-02-19T15:04:25.613Z,99823.94
2023-02-19T15:06:53.522Z,99819.59
2023-02-19T15:09:21.845Z,99834.94
2023-02-19T15:11:49.091Z,99828.00
2023-02-19T15:14:23.840Z,99826.19
2023-02-19T15:16:56.737Z,99831.25
2023-02-19T15:19:23.762Z,99832.91
2023-02-19T15:21:50.780Z,99831.16
2023-02-19T15:24:18.651Z,99834.50
2023-02-19T15:26:50.967Z,99841.25
2023-02-19T15:29:20.644Z,99849.75
2023-02-19T15:31:50.282Z,99851.50
2023-02-19T15:34:25.925Z,99853.06
2023-02-19T15:37:01.678Z,99856.31
2023-02-19T15:39:39.492Z,99867.38
2023-02-19T15:42:08.134Z,99861.47
2023-02-19T15:44:47.509Z,99850.22
2023-02-19T15:47:24.688Z,99870.72
2023-02-19T15:49:58.473Z,99861.94
2023-02-19T15:52:32.052Z,99862.81
2023-02-19T15:55:11.268Z,99874.81
2023-02-19T15:57:43.730Z,99856.69
2023-02-19T16:00:20.058Z,99866.91
2023-02-19T16:02:47.119Z,99858.97
2023-02-19T16:05:18.044Z,99869.13
2023-02-19T16:07:44.946Z,99881.88
2023-02-19T16:10:21.316Z,99886.03
2023-02-19T16:12:59.318Z,99896.16
2023-02-19T16:15:28.215Z,99890.84
2023-02-19T16:17:56.109Z,99902.03
2023-02-19T16:20:29.074Z,99897.78
2023-02-19T16:23:04.542Z,99905.53
2023-02-19T16:25:41.890Z,99908.09
2023-02-19T16:28:22.592Z,99916.84
2023-02-19T16:31:10.725Z,99915.00
2023-02-19T16:33:48.718Z,99928.50
2023-02-19T16:36:36.687Z,99930.22
2023-02-19T16:39:14.626Z,99917.25
2023-02-19T16:42:17.043Z,99919.59
2023-02-19T16:44:44.848Z,99918.63
2023-02-19T16:47:24.467Z,99920.34
2023-02-19T16:49:51.498Z,99908.16
2023-02-19T16:52:18.405Z,99915.75
2023-02-19T16:54:45.279Z,99913.91
2023-02-19T16:57:12.145Z,99907.06
2023-02-19T16:59:39.543Z,99915.59
2023-02-19T17:02:06.924Z,99912.97
2023-02-19T17:04:34.864Z,99912.91
2023-02-19T17:07:02.507Z,99917.34
2023-02-19T17:09:29.549Z,99906.09
2023-02-19T17:11:56.428Z,99900.91
2023-02-19T17:14:23.507Z,99902.56
2023-02-19T17:16:50.396Z,99912.91
2023-02-19T17:19:19.695Z,99913.63
2023-02-19T17:21:47.175Z,99916.09
2023-02-19T17:24:14.586Z,99910.13
2023-02-19T17:26:41.692Z,99921.13
2023-02-19T17:29:14.083Z,99909.81
2023-02-19T17:31:41.803Z,99925.13
2023-02-19T17:34:08.814Z,99920.00
2023-02-19T17:36:37.951Z,99919.97
2023-02-19T17:39:12.034Z,99922.50
2023-02-19T17:41:38.988Z,99921.69
2023-02-19T17:44:05.860Z,99923.41
2023-02-19T17:46:34.078Z,99923.41
2023-02-19T17:49:01.457Z,99924.22
2023-02-19T17:51:28.418Z,99928.53
2023-02-19T17:53:55.339Z,99915.66
2023-02-19T17:56:25.575Z,99927.63
2023-02-19T17:58:53.901Z,99921.66
2023-02-19T18:01:22.325Z,99918.28
2023-02-19T18:03:49.310Z,99919.28
2023-02-19T18:06:16.689Z,99915.09
2023-02-19T18:08:48.771Z,99917.63
2023-02-19T18:11:16.273Z,99922.72
2023-02-19T18:13:43.174Z,99916.66
2023-02-19T18:16:12.813Z,99920.84
2023-02-19T18:18:41.014Z,99916.66
2023-02-19T18:21:09.651Z,99922.72
2023-02-19T18:23:37.086Z,99918.38
2023-02-19T18:26:06.472Z,99922.66
2023-02-19T18:28:34.831Z,99931.25
2023-02-19T18:31:04.726Z,99922.69
2023-02-19T18:33:31.860Z,99928.78
2023-02-19T18:35:58.768Z,99916.94
2023-02-19T18:38:26.690Z,99917.81
2023-02-19T18:40:53.634Z,99914.41
2023-02-19T18:43:20.487Z,99908.44
2023-02-19T18:45:47.540Z,99911.19
2023-02-19T18:48:14.448Z,99907.94
2023-02-19T18:50:41.492Z,99914.06
2023-02-19T18:53:08.461Z,99904.03
2023-02-19T18:55:35.372Z,99916.22
2023-02-19T18:58:02.230Z,99916.25
2023-02-19T19:00:29.176Z,99916.34
2023-02-19T19:02:58.105Z,99906.25
2023-02-19T19:05:25.508Z,99903.88
2023-02-19T19:07:57.678Z,99902.31
2023-02-19T19:10:24.731Z,99905.00
2023-02-19T19:12:51.905Z,99910.97
2023-02-19T19:15:19.077Z,99918.66
2023-02-19T19:17:46.956Z,99900.72
2023-02-19T19:20:16.294Z,99893.84
2023-02-19T19:22:43.132Z,99898.09
2023-02-19T19:25:10.250Z,99892.88
2023-02-19T19:27:37.178Z,99903.19
2023-02-19T19:30:05.111Z,99886.13
2023-02-19T19:32:32.066Z,99893.13
2023-02-19T19:34:58.933Z,99892.34
2023-02-19T19:37:28.430Z,99893.34
2023-02-19T19:39:56.427Z,99889.16
2023-02-19T19:42:24.069Z,99897.81
2023-02-19T19:44:51.140Z,99899.69
2023-02-19T19:47:18.292Z,99896.34
2023-02-19T19:49:48.369Z,99900.72
2023-02-19T19:52:16.534Z,99897.38
2023-02-19T19:54:43.686Z,99876.84
2023-02-19T19:57:11.161Z,99893.19
2023-02-19T19:59:39.632Z,99888.94
2023-02-19T20:02:08.117Z,99875.28
2023-02-19T20:04:35.022Z,99883.03
2023-02-19T20:07:02.462Z,99871.25
2023-02-19T20:09:29.529Z,99883.28
2023-02-19T20:11:57.295Z,99864.41
2023-02-19T20:14:25.944Z,99855.97
2023-02-19T20:16:57.516Z,99859.41
2023-02-19T20:19:25.864Z,99859.47
2023-02-19T20:21:54.095Z,99866.38
2023-02-19T20:24:30.020Z,99865.53
2023-02-19T20:27:03.442Z,99866.53
2023-02-19T20:29:33.702Z,99872.66
2023-02-19T20:32:02.854Z,99856.47
2023-02-19T20:34:31.050Z,99858.31
2023-02-19T20:37:00.141Z,99853.16
2023-02-19T20:39:29.444Z,99854.78
2023-02-19T20:41:59.303Z,99827.31
2023-02-19T20:44:29.501Z,99835.88
2023-02-19T20:46:58.509Z,99842.84
2023-02-19T20:49:30.652Z,99838.56
2023-02-19T20:51:59.351Z,99825.81
2023-02-19T20:54:29.724Z,99838.66
2023-02-19T20:56:58.566Z,99848.88
2023-02-19T20:59:30.884Z,99854.13
2023-02-19T21:01:59.116Z,99861.91
2023-02-19T21:04:27.218Z,99856.84
2023-02-19T21:06:54.195Z,99857.78
2023-02-19T21:09:22.828Z,99855.19
2023-02-19T21:11:50.549Z,99856.06
2023-02-19T21:14:17.696Z,99862.94
2023-02-19T21:16:44.711Z,99868.16
2023-02-19T21:19:11.682Z,99868.88
2023-02-19T21:21:40.369Z,99871.38
2023-02-19T21:24:09.327Z,99866.31
2023-02-19T21:26:38.465Z,99864.56
2023-02-19T21:29:07.091Z,99851.75
2023-02-19T21:31:41.497Z,99870.56
2023-02-19T21:34:10.290Z,99863.00
2023-02-19T21:36:37.481Z,99858.88
2023-02-19T21:39:05.724Z,99866.69
2023-02-19T21:41:32.854Z,99867.50
2023-02-19T21:43:59.749Z,99877.00
2023-02-19T21:46:27.058Z,99868.41
2023-02-19T21:48:55.692Z,99883.06
2023-02-19T21:51:29.348Z,99870.19
2023-02-19T21:53:56.312Z,99875.34
2023-02-19T21:56:25.070Z,99885.63
2023-02-19T21:58:52.043Z,99888.94
2023-02-19T22:01:23.487Z,99870.81
2023-02-19T22:03:50.610Z,99879.41
2023-02-19T22:06:18.116Z,99871.59
2023-02-19T22:08:45.269Z,99856.06
2023-02-19T22:11:12.298Z,99893.00
2023-02-19T22:13:39.766Z,99882.66
2023-02-19T22:16:07.091Z,99874.88
2023-02-19T22:18:34.678Z,99867.03
2023-02-19T22:21:02.721Z,99880.78
2023-02-19T22:23:29.558Z,99886.78
2023-02-19T22:25:56.524Z,99885.03
2023-02-19T22:28:23.337Z,99885.88
2023-02-19T22:30:50.286Z,99880.78
2023-02-19T22:33:17.280Z,99889.38
2023-02-19T22:35:44.208Z,99880.72
2023-02-19T22:38:11.152Z,99884.16
2023-02-19T22:40:38.077Z,99907.31
2023-02-19T22:43:04.900Z,99888.44
2023-02-19T22:45:31.843Z,99893.59
2023-02-19T22:47:58.766Z,99883.28
2023-02-19T22:50:26.594Z,99879.75
2023-02-19T22:52:56.418Z,99900.38
2023-02-19T22:55:23.287Z,99898.66
2023-02-19T22:57:50.141Z,99896.06
2023-02-19T23:00:23.881Z,99888.41
2023-02-19T23:02:50.798Z,99881.63
2023-02-19T23:05:17.741Z,99876.56
2023-02-19T23:07:45.825Z,99883.47
2023-02-19T23:10:13.630Z,99865.50
2023-02-19T23:12:40.950Z,99881.03
2023-02-19T23:15:09.554Z,99883.59
2023-02-19T23:17:36.631Z,99891.38
2023-02-19T23:20:04.136Z,99883.78
2023-02-19T23:22:30.976Z,99881.22
2023-02-19T23:24:57.775Z,99883.00
2023-02-19T23:27:26.700Z,99876.13
2023-02-19T23:29:53.526Z,99872.75
2023-02-19T23:32:21.162Z,99875.34
2023-02-19T23:34:48.345Z,99874.50
2023-02-19T23:37:15.764Z,99862.47
2023-02-19T23:39:42.716Z,99879.81
2023-02-19T23:42:13.846Z,99883.22
2023-02-19T23:44:40.640Z,99876.38
2023-02-19T23:47:07.443Z,99876.34
2023-02-19T23:49:34.289Z,99866.97
2023-02-19T23:52:01.081Z,99884.09
2023-02-19T23:54:27.919Z,99885.00
2023-02-19T23:56:55.740Z,99876.44
2023-02-19T23:59:22.768Z,99885.81
